sensor_id;sensor_type;location;lat;lon;timestamp;P1;durP1;ratioP1;P2;durP2;ratioP2
12435;SDS011;6282;51.440;6.938;2022-08-19T00:01:55;1999.90;;;999.90;;
12435;SDS011;6282;51.440;6.938;2022-08-19T00:04:25;1999.90;;;999.90;;
12435;SDS011;6282;51.440;6.938;2022-08-19T00:06:54;1999.90;;;999.90;;
12435;SDS011;6282;51.440;6.938;2022-08-19T00:09:21;1999.90;;;999.90;;
12435;SDS011;6282;51.440;6.938;2022-08-19T00:11:50;1999.90;;;999.90;;
12435;SDS011;6282;51.440;6.938;2022-08-19T00:14:19;1999.90;;;999.90;;
12435;SDS011;6282;51.440;6.938;2022-08-19T00:16:46;1999.90;;;999.90;;
12435;SDS011;6282;51.440;6.938;2022-08-19T00:19:16;1999.90;;;999.90;;
12435;SDS011;6282;51.440;6.938;2022-08-19T00:21:43;1999.90;;;999.90;;
12435;SDS011;6282;51.440;6.938;2022-08-19T00:24:11;1999.90;;;999.90;;
12435;SDS011;6282;51.440;6.938;2022-08-19T00:26:41;1999.90;;;999.90;;
12435;SDS011;6282;51.440;6.938;2022-08-19T00:29:09;1999.90;;;999.90;;
12435;SDS011;6282;51.440;6.938;2022-08-19T00:31:39;1999.90;;;999.90;;
12435;SDS011;6282;51.440;6.938;2022-08-19T00:34:06;1999.90;;;999.90;;
12435;SDS011;6282;51.440;6.938;2022-08-19T00:36:33;1999.90;;;999.90;;
12435;SDS011;6282;51.440;6.938;2022-08-19T00:39:02;1999.90;;;999.90;;
12435;SDS011;6282;51.440;6.938;2022-08-19T00:41:30;1999.90;;;999.90;;
12435;SDS011;6282;51.440;6.938;2022-08-19T00:43:58;1999.90;;;999.90;;
12435;SDS011;6282;51.440;6.938;2022-08-19T00:48:59;1999.90;;;999.90;;
12435;SDS011;6282;51.440;6.938;2022-08-19T00:51:28;1999.90;;;999.90;;
12435;SDS011;6282;51.440;6.938;2022-08-19T00:53:57;1999.90;;;999.90;;
12435;SDS011;6282;51.440;6.938;2022-08-19T00:56:26;1999.90;;;999.90;;
12435;SDS011;6282;51.440;6.938;2022-08-19T00:58:55;1999.90;;;999.90;;
12435;SDS011;6282;51.440;6.938;2022-08-19T01:01:24;1999.90;;;999.90;;
12435;SDS011;6282;51.440;6.938;2022-08-19T01:03:51;1999.90;;;999.90;;
12435;SDS011;6282;51.440;6.938;2022-08-19T01:06:19;1999.90;;;999.90;;
12435;SDS011;6282;51.440;6.938;2022-08-19T01:08:46;1999.90;;;999.90;;
12435;SDS011;6282;51.440;6.938;2022-08-19T01:11:13;1999.90;;;999.90;;
12435;SDS011;6282;51.440;6.938;2022-08-19T01:13:40;1999.90;;;999.90;;
12435;SDS011;6282;51.440;6.938;2022-08-19T01:16:08;1999.90;;;999.90;;
12435;SDS011;6282;51.440;6.938;2022-08-19T01:18:38;1999.90;;;999.90;;
12435;SDS011;6282;51.440;6.938;2022-08-19T01:21:08;1999.90;;;999.90;;
12435;SDS011;6282;51.440;6.938;2022-08-19T01:23:41;1999.90;;;999.90;;
12435;SDS011;6282;51.440;6.938;2022-08-19T01:26:09;1999.90;;;999.90;;
12435;SDS011;6282;51.440;6.938;2022-08-19T01:28:38;1999.90;;;999.90;;
12435;SDS011;6282;51.440;6.938;2022-08-19T01:31:06;1999.90;;;999.90;;
12435;SDS011;6282;51.440;6.938;2022-08-19T01:33:36;1999.90;;;999.90;;
12435;SDS011;6282;51.440;6.938;2022-08-19T01:36:04;1999.90;;;999.90;;
12435;SDS011;6282;51.440;6.938;2022-08-19T01:38:35;1999.90;;;999.90;;
12435;SDS011;6282;51.440;6.938;2022-08-19T01:41:05;1999.90;;;999.90;;
12435;SDS011;6282;51.440;6.938;2022-08-19T01:43:32;1999.90;;;999.90;;
12435;SDS011;6282;51.440;6.938;2022-08-19T01:45:59;1999.90;;;999.90;;
12435;SDS011;6282;51.440;6.938;2022-08-19T01:48:31;1999.90;;;999.90;;
12435;SDS011;6282;51.440;6.938;2022-08-19T01:51:00;1992.47;;;999.90;;
12435;SDS011;6282;51.440;6.938;2022-08-19T01:53:27;1979.13;;;999.90;;
12435;SDS011;6282;51.440;6.938;2022-08-19T01:55:54;1990.70;;;999.90;;
12435;SDS011;6282;51.440;6.938;2022-08-19T01:58:22;1980.32;;;999.90;;
12435;SDS011;6282;51.440;6.938;2022-08-19T02:00:54;1938.03;;;999.90;;
12435;SDS011;6282;51.440;6.938;2022-08-19T02:03:21;1934.30;;;999.90;;
12435;SDS011;6282;51.440;6.938;2022-08-19T02:05:53;1958.53;;;999.90;;
12435;SDS011;6282;51.440;6.938;2022-08-19T02:08:20;1980.90;;;999.90;;
12435;SDS011;6282;51.440;6.938;2022-08-19T02:10:47;1965.35;;;999.90;;
12435;SDS011;6282;51.440;6.938;2022-08-19T02:13:14;1999.90;;;999.90;;
12435;SDS011;6282;51.440;6.938;2022-08-19T02:15:43;1977.88;;;999.90;;
12435;SDS011;6282;51.440;6.938;2022-08-19T02:18:10;1928.45;;;999.90;;
12435;SDS011;6282;51.440;6.938;2022-08-19T02:20:39;1873.05;;;999.90;;
12435;SDS011;6282;51.440;6.938;2022-08-19T02:23:08;1871.80;;;999.90;;
12435;SDS011;6282;51.440;6.938;2022-08-19T02:25:36;1911.68;;;999.90;;
12435;SDS011;6282;51.440;6.938;2022-08-19T02:28:04;1825.47;;;999.90;;
12435;SDS011;6282;51.440;6.938;2022-08-19T02:30:31;1843.55;;;999.90;;
12435;SDS011;6282;51.440;6.938;2022-08-19T02:32:59;1826.57;;;999.90;;
12435;SDS011;6282;51.440;6.938;2022-08-19T02:35:26;1783.10;;;999.90;;
12435;SDS011;6282;51.440;6.938;2022-08-19T02:37:53;1738.82;;;999.90;;
12435;SDS011;6282;51.440;6.938;2022-08-19T02:40:37;1637.10;;;999.90;;
12435;SDS011;6282;51.440;6.938;2022-08-19T02:43:04;1630.95;;;999.90;;
12435;SDS011;6282;51.440;6.938;2022-08-19T02:45:33;1517.80;;;999.90;;
12435;SDS011;6282;51.440;6.938;2022-08-19T02:48:03;1524.78;;;999.90;;
12435;SDS011;6282;51.440;6.938;2022-08-19T02:50:30;1603.85;;;999.90;;
12435;SDS011;6282;51.440;6.938;2022-08-19T02:52:58;1787.40;;;999.90;;
12435;SDS011;6282;51.440;6.938;2022-08-19T02:55:24;1828.88;;;999.90;;
12435;SDS011;6282;51.440;6.938;2022-08-19T02:57:51;1675.28;;;999.90;;
12435;SDS011;6282;51.440;6.938;2022-08-19T03:00:18;1779.07;;;999.90;;
12435;SDS011;6282;51.440;6.938;2022-08-19T03:02:45;1738.20;;;999.90;;
12435;SDS011;6282;51.440;6.938;2022-08-19T03:05:15;1706.57;;;999.90;;
12435;SDS011;6282;51.440;6.938;2022-08-19T03:07:42;1636.28;;;999.90;;
12435;SDS011;6282;51.440;6.938;2022-08-19T03:10:09;1559.15;;;999.90;;
12435;SDS011;6282;51.440;6.938;2022-08-19T03:12:36;1574.53;;;999.90;;
12435;SDS011;6282;51.440;6.938;2022-08-19T03:15:05;1658.78;;;999.90;;
12435;SDS011;6282;51.440;6.938;2022-08-19T03:17:34;1596.72;;;999.90;;
12435;SDS011;6282;51.440;6.938;2022-08-19T03:20:02;1583.18;;;999.90;;
12435;SDS011;6282;51.440;6.938;2022-08-19T03:22:31;1548.70;;;999.90;;
12435;SDS011;6282;51.440;6.938;2022-08-19T03:24:58;1587.82;;;999.90;;
12435;SDS011;6282;51.440;6.938;2022-08-19T03:27:25;1565.88;;;999.90;;
12435;SDS011;6282;51.440;6.938;2022-08-19T03:29:52;1592.07;;;999.90;;
12435;SDS011;6282;51.440;6.938;2022-08-19T03:32:19;1571.03;;;999.90;;
12435;SDS011;6282;51.440;6.938;2022-08-19T03:34:47;1369.90;;;999.90;;
12435;SDS011;6282;51.440;6.938;2022-08-19T03:37:15;1271.50;;;999.90;;
12435;SDS011;6282;51.440;6.938;2022-08-19T03:39:44;1406.80;;;999.90;;
12435;SDS011;6282;51.440;6.938;2022-08-19T03:42:11;1464.43;;;999.90;;
12435;SDS011;6282;51.440;6.938;2022-08-19T03:44:38;1525.82;;;999.90;;
12435;SDS011;6282;51.440;6.938;2022-08-19T03:47:07;1329.60;;;999.90;;
12435;SDS011;6282;51.440;6.938;2022-08-19T03:49:34;1225.55;;;999.90;;
12435;SDS011;6282;51.440;6.938;2022-08-19T03:52:01;1402.88;;;999.90;;
12435;SDS011;6282;51.440;6.938;2022-08-19T03:54:32;1513.20;;;999.90;;
12435;SDS011;6282;51.440;6.938;2022-08-19T03:57:00;1514.03;;;999.90;;
12435;SDS011;6282;51.440;6.938;2022-08-19T03:59:29;1346.45;;;999.90;;
12435;SDS011;6282;51.440;6.938;2022-08-19T04:01:58;1358.25;;;999.90;;
12435;SDS011;6282;51.440;6.938;2022-08-19T04:04:27;1407.63;;;999.90;;
12435;SDS011;6282;51.440;6.938;2022-08-19T04:06:54;1376.85;;;999.90;;
12435;SDS011;6282;51.440;6.938;2022-08-19T04:09:22;1225.20;;;999.90;;
12435;SDS011;6282;51.440;6.938;2022-08-19T04:11:51;1279.80;;;999.90;;
12435;SDS011;6282;51.440;6.938;2022-08-19T04:14:22;1228.63;;;999.90;;
12435;SDS011;6282;51.440;6.938;2022-08-19T04:16:51;1107.93;;;990.92;;
12435;SDS011;6282;51.440;6.938;2022-08-19T04:19:18;1116.88;;;992.10;;
12435;SDS011;6282;51.440;6.938;2022-08-19T04:21:48;1238.03;;;999.90;;
12435;SDS011;6282;51.440;6.938;2022-08-19T04:24:18;1267.03;;;999.90;;
12435;SDS011;6282;51.440;6.938;2022-08-19T04:26:45;1242.13;;;999.90;;
12435;SDS011;6282;51.440;6.938;2022-08-19T04:29:14;1090.32;;;981.63;;
12435;SDS011;6282;51.440;6.938;2022-08-19T04:31:45;1154.97;;;999.25;;
12435;SDS011;6282;51.440;6.938;2022-08-19T04:34:13;1161.88;;;999.90;;
12435;SDS011;6282;51.440;6.938;2022-08-19T04:36:42;1149.43;;;999.90;;
12435;SDS011;6282;51.440;6.938;2022-08-19T04:39:12;1147.38;;;998.65;;
12435;SDS011;6282;51.440;6.938;2022-08-19T04:41:40;1205.88;;;999.90;;
12435;SDS011;6282;51.440;6.938;2022-08-19T04:44:25;1084.57;;;975.72;;
12435;SDS011;6282;51.440;6.938;2022-08-19T04:46:56;1081.65;;;971.75;;
12435;SDS011;6282;51.440;6.938;2022-08-19T04:49:24;1133.07;;;996.40;;
12435;SDS011;6282;51.440;6.938;2022-08-19T04:51:52;1142.68;;;999.90;;
12435;SDS011;6282;51.440;6.938;2022-08-19T04:54:20;1108.60;;;994.08;;
12435;SDS011;6282;51.440;6.938;2022-08-19T04:56:48;1069.65;;;963.80;;
12435;SDS011;6282;51.440;6.938;2022-08-19T04:59:16;1121.57;;;995.05;;
12435;SDS011;6282;51.440;6.938;2022-08-19T05:01:43;1145.82;;;998.33;;
12435;SDS011;6282;51.440;6.938;2022-08-19T05:04:17;1225.68;;;999.90;;
12435;SDS011;6282;51.440;6.938;2022-08-19T05:06:46;1280.78;;;999.90;;
12435;SDS011;6282;51.440;6.938;2022-08-19T05:09:13;1456.57;;;999.90;;
12435;SDS011;6282;51.440;6.938;2022-08-19T05:11:42;1523.03;;;999.90;;
12435;SDS011;6282;51.440;6.938;2022-08-19T05:14:10;1587.22;;;999.90;;
12435;SDS011;6282;51.440;6.938;2022-08-19T05:16:38;1598.28;;;999.90;;
12435;SDS011;6282;51.440;6.938;2022-08-19T05:19:05;1652.45;;;999.90;;
12435;SDS011;6282;51.440;6.938;2022-08-19T05:21:51;1537.32;;;999.90;;
12435;SDS011;6282;51.440;6.938;2022-08-19T05:24:35;1483.15;;;999.90;;
12435;SDS011;6282;51.440;6.938;2022-08-19T05:27:03;1655.15;;;999.90;;
12435;SDS011;6282;51.440;6.938;2022-08-19T05:29:31;1918.25;;;999.90;;
12435;SDS011;6282;51.440;6.938;2022-08-19T05:32:00;1994.15;;;999.90;;
12435;SDS011;6282;51.440;6.938;2022-08-19T05:34:28;1999.90;;;999.90;;
12435;SDS011;6282;51.440;6.938;2022-08-19T05:36:59;1999.90;;;999.90;;
12435;SDS011;6282;51.440;6.938;2022-08-19T05:39:29;1999.90;;;999.90;;
12435;SDS011;6282;51.440;6.938;2022-08-19T05:41:58;1999.90;;;999.90;;
12435;SDS011;6282;51.440;6.938;2022-08-19T05:44:28;1999.90;;;999.90;;
12435;SDS011;6282;51.440;6.938;2022-08-19T05:50:00;1999.90;;;999.90;;
12435;SDS011;6282;51.440;6.938;2022-08-19T05:52:29;1999.90;;;999.90;;
12435;SDS011;6282;51.440;6.938;2022-08-19T05:54:56;1999.90;;;999.90;;
12435;SDS011;6282;51.440;6.938;2022-08-19T05:57:23;1999.90;;;999.90;;
12435;SDS011;6282;51.440;6.938;2022-08-19T05:59:50;1999.90;;;999.90;;
12435;SDS011;6282;51.440;6.938;2022-08-19T06:02:18;1999.90;;;999.90;;
12435;SDS011;6282;51.440;6.938;2022-08-19T06:04:45;1999.90;;;999.90;;
12435;SDS011;6282;51.440;6.938;2022-08-19T06:07:13;1999.90;;;999.90;;
12435;SDS011;6282;51.440;6.938;2022-08-19T06:09:41;1999.90;;;999.90;;
12435;SDS011;6282;51.440;6.938;2022-08-19T06:12:08;1999.90;;;999.90;;
12435;SDS011;6282;51.440;6.938;2022-08-19T06:14:35;1999.90;;;999.90;;
12435;SDS011;6282;51.440;6.938;2022-08-19T06:17:02;1999.90;;;999.90;;
12435;SDS011;6282;51.440;6.938;2022-08-19T06:19:29;1999.90;;;999.90;;
12435;SDS011;6282;51.440;6.938;2022-08-19T06:21:57;1999.90;;;999.90;;
12435;SDS011;6282;51.440;6.938;2022-08-19T06:24:26;1999.90;;;999.90;;
12435;SDS011;6282;51.440;6.938;2022-08-19T06:26:56;1999.90;;;999.90;;
12435;SDS011;6282;51.440;6.938;2022-08-19T06:29:24;1999.90;;;999.90;;
12435;SDS011;6282;51.440;6.938;2022-08-19T06:31:53;1999.90;;;999.90;;
12435;SDS011;6282;51.440;6.938;2022-08-19T06:34:22;1999.90;;;999.90;;
12435;SDS011;6282;51.440;6.938;2022-08-19T06:36:50;1999.90;;;999.90;;
12435;SDS011;6282;51.440;6.938;2022-08-19T06:39:19;1999.90;;;999.90;;
12435;SDS011;6282;51.440;6.938;2022-08-19T06:41:49;1999.90;;;999.90;;
12435;SDS011;6282;51.440;6.938;2022-08-19T06:44:21;1999.90;;;999.90;;
12435;SDS011;6282;51.440;6.938;2022-08-19T06:46:49;1999.90;;;999.90;;
12435;SDS011;6282;51.440;6.938;2022-08-19T06:49:17;1999.90;;;999.90;;
12435;SDS011;6282;51.440;6.938;2022-08-19T06:51:44;1999.90;;;999.90;;
12435;SDS011;6282;51.440;6.938;2022-08-19T06:54:13;1999.90;;;999.90;;
12435;SDS011;6282;51.440;6.938;2022-08-19T06:56:40;1999.90;;;999.90;;
12435;SDS011;6282;51.440;6.938;2022-08-19T06:59:09;1999.90;;;999.90;;
12435;SDS011;6282;51.440;6.938;2022-08-19T07:01:40;1999.90;;;999.90;;
12435;SDS011;6282;51.440;6.938;2022-08-19T07:04:10;1999.90;;;999.90;;
12435;SDS011;6282;51.440;6.938;2022-08-19T07:06:38;1999.90;;;999.90;;
12435;SDS011;6282;51.440;6.938;2022-08-19T07:09:05;1999.90;;;999.90;;
12435;SDS011;6282;51.440;6.938;2022-08-19T07:11:32;1999.90;;;999.90;;
12435;SDS011;6282;51.440;6.938;2022-08-19T07:14:00;1999.90;;;999.90;;
12435;SDS011;6282;51.440;6.938;2022-08-19T07:16:27;1999.90;;;999.90;;
12435;SDS011;6282;51.440;6.938;2022-08-19T07:18:56;1999.90;;;999.90;;
12435;SDS011;6282;51.440;6.938;2022-08-19T07:21:25;1999.90;;;999.90;;
12435;SDS011;6282;51.440;6.938;2022-08-19T07:23:53;1999.90;;;999.90;;
12435;SDS011;6282;51.440;6.938;2022-08-19T07:26:22;1999.90;;;999.90;;
12435;SDS011;6282;51.440;6.938;2022-08-19T07:28:52;1999.90;;;999.90;;
12435;SDS011;6282;51.440;6.938;2022-08-19T07:31:21;1999.90;;;999.90;;
12435;SDS011;6282;51.440;6.938;2022-08-19T07:33:50;1999.90;;;999.90;;
12435;SDS011;6282;51.440;6.938;2022-08-19T07:36:22;1999.90;;;999.90;;
12435;SDS011;6282;51.440;6.938;2022-08-19T07:38:50;1999.90;;;999.90;;
12435;SDS011;6282;51.440;6.938;2022-08-19T07:41:19;1999.90;;;999.90;;
12435;SDS011;6282;51.440;6.938;2022-08-19T07:43:48;1999.90;;;999.90;;
12435;SDS011;6282;51.440;6.938;2022-08-19T07:46:15;1999.90;;;999.90;;
12435;SDS011;6282;51.440;6.938;2022-08-19T07:48:45;1999.90;;;999.90;;
12435;SDS011;6282;51.440;6.938;2022-08-19T07:51:15;1999.90;;;999.90;;
12435;SDS011;6282;51.440;6.938;2022-08-19T07:53:48;1999.90;;;999.90;;
12435;SDS011;6282;51.440;6.938;2022-08-19T07:56:16;1999.90;;;999.90;;
12435;SDS011;6282;51.440;6.938;2022-08-19T07:58:45;1999.90;;;999.90;;
12435;SDS011;6282;51.440;6.938;2022-08-19T08:01:14;1999.90;;;999.90;;
12435;SDS011;6282;51.440;6.938;2022-08-19T08:03:44;1999.90;;;999.90;;
12435;SDS011;6282;51.440;6.938;2022-08-19T08:06:28;1999.90;;;999.90;;
12435;SDS011;6282;51.440;6.938;2022-08-19T08:09:15;1999.90;;;999.90;;
12435;SDS011;6282;51.440;6.938;2022-08-19T08:11:47;1999.90;;;999.90;;
12435;SDS011;6282;51.440;6.938;2022-08-19T08:14:16;1999.90;;;999.90;;
12435;SDS011;6282;51.440;6.938;2022-08-19T08:16:46;1999.90;;;999.90;;
12435;SDS011;6282;51.440;6.938;2022-08-19T08:19:15;1999.90;;;999.90;;
12435;SDS011;6282;51.440;6.938;2022-08-19T08:21:42;1999.90;;;999.90;;
12435;SDS011;6282;51.440;6.938;2022-08-19T08:24:09;1999.90;;;999.90;;
12435;SDS011;6282;51.440;6.938;2022-08-19T08:26:38;1999.90;;;999.90;;
12435;SDS011;6282;51.440;6.938;2022-08-19T08:29:05;1999.90;;;999.90;;
12435;SDS011;6282;51.440;6.938;2022-08-19T08:31:36;1999.90;;;999.90;;
12435;SDS011;6282;51.440;6.938;2022-08-19T08:34:03;1999.90;;;999.90;;
12435;SDS011;6282;51.440;6.938;2022-08-19T08:36:30;1999.90;;;999.90;;
12435;SDS011;6282;51.440;6.938;2022-08-19T08:38:58;1999.90;;;999.90;;
12435;SDS011;6282;51.440;6.938;2022-08-19T08:41:26;1999.90;;;999.90;;
12435;SDS011;6282;51.440;6.938;2022-08-19T08:44:04;1999.90;;;999.90;;
12435;SDS011;6282;51.440;6.938;2022-08-19T08:46:34;1999.90;;;999.90;;
12435;SDS011;6282;51.440;6.938;2022-08-19T08:49:06;1999.90;;;999.90;;
12435;SDS011;6282;51.440;6.938;2022-08-19T08:51:44;1999.90;;;999.90;;
12435;SDS011;6282;51.440;6.938;2022-08-19T08:54:14;1999.90;;;999.90;;
12435;SDS011;6282;51.440;6.938;2022-08-19T08:56:46;1999.90;;;999.90;;
12435;SDS011;6282;51.440;6.938;2022-08-19T08:59:19;1999.90;;;999.90;;
12435;SDS011;6282;51.440;6.938;2022-08-19T09:01:49;1999.90;;;999.90;;
12435;SDS011;6282;51.440;6.938;2022-08-19T09:04:16;1999.90;;;999.90;;
12435;SDS011;6282;51.440;6.938;2022-08-19T09:06:44;1999.90;;;999.90;;
12435;SDS011;6282;51.440;6.938;2022-08-19T09:09:18;1999.90;;;999.90;;
12435;SDS011;6282;51.440;6.938;2022-08-19T09:11:56;1999.90;;;999.90;;
12435;SDS011;6282;51.440;6.938;2022-08-19T09:14:34;1999.90;;;999.90;;
12435;SDS011;6282;51.440;6.938;2022-08-19T09:17:06;1999.90;;;999.90;;
12435;SDS011;6282;51.440;6.938;2022-08-19T09:19:34;1999.90;;;999.90;;
12435;SDS011;6282;51.440;6.938;2022-08-19T09:22:01;1999.90;;;999.90;;
12435;SDS011;6282;51.440;6.938;2022-08-19T09:24:27;1999.90;;;999.90;;
12435;SDS011;6282;51.440;6.938;2022-08-19T09:26:54;1999.90;;;999.90;;
12435;SDS011;6282;51.440;6.938;2022-08-19T09:29:21;1999.90;;;999.90;;
12435;SDS011;6282;51.440;6.938;2022-08-19T09:31:49;1999.90;;;999.90;;
12435;SDS011;6282;51.440;6.938;2022-08-19T09:37:38;1999.90;;;999.90;;
12435;SDS011;6282;51.440;6.938;2022-08-19T09:40:08;1999.90;;;999.90;;
12435;SDS011;6282;51.440;6.938;2022-08-19T09:42:36;1999.90;;;999.90;;
12435;SDS011;6282;51.440;6.938;2022-08-19T09:45:03;1999.90;;;999.90;;
12435;SDS011;6282;51.440;6.938;2022-08-19T09:47:32;1999.90;;;999.90;;
12435;SDS011;6282;51.440;6.938;2022-08-19T09:50:01;1999.90;;;999.90;;
12435;SDS011;6282;51.440;6.938;2022-08-19T09:52:28;1999.90;;;999.90;;
12435;SDS011;6282;51.440;6.938;2022-08-19T09:54:55;1999.90;;;999.90;;
12435;SDS011;6282;51.440;6.938;2022-08-19T09:57:21;1999.90;;;999.90;;
12435;SDS011;6282;51.440;6.938;2022-08-19T09:59:48;1999.90;;;999.90;;
12435;SDS011;6282;51.440;6.938;2022-08-19T10:02:15;1999.90;;;999.90;;
12435;SDS011;6282;51.440;6.938;2022-08-19T10:04:45;1999.90;;;999.90;;
12435;SDS011;6282;51.440;6.938;2022-08-19T10:07:29;1999.90;;;999.90;;
12435;SDS011;6282;51.440;6.938;2022-08-19T10:09:56;1999.90;;;999.90;;
12435;SDS011;6282;51.440;6.938;2022-08-19T10:12:23;1999.90;;;999.90;;
12435;SDS011;6282;51.440;6.938;2022-08-19T10:14:50;1999.90;;;999.90;;
12435;SDS011;6282;51.440;6.938;2022-08-19T10:17:18;1999.90;;;999.90;;
12435;SDS011;6282;51.440;6.938;2022-08-19T10:19:46;1999.90;;;999.90;;
12435;SDS011;6282;51.440;6.938;2022-08-19T10:22:13;1999.90;;;999.90;;
12435;SDS011;6282;51.440;6.938;2022-08-19T10:24:41;1999.90;;;999.90;;
12435;SDS011;6282;51.440;6.938;2022-08-19T10:27:11;1999.90;;;999.90;;
12435;SDS011;6282;51.440;6.938;2022-08-19T10:29:39;1999.90;;;999.90;;
12435;SDS011;6282;51.440;6.938;2022-08-19T10:32:07;1999.90;;;999.90;;
12435;SDS011;6282;51.440;6.938;2022-08-19T10:34:35;1999.90;;;999.90;;
12435;SDS011;6282;51.440;6.938;2022-08-19T10:40:26;1999.90;;;999.90;;
12435;SDS011;6282;51.440;6.938;2022-08-19T10:42:54;1999.90;;;999.90;;
12435;SDS011;6282;51.440;6.938;2022-08-19T10:45:21;1999.90;;;999.90;;
12435;SDS011;6282;51.440;6.938;2022-08-19T10:47:52;1999.90;;;999.90;;
12435;SDS011;6282;51.440;6.938;2022-08-19T10:50:19;1999.90;;;999.90;;
12435;SDS011;6282;51.440;6.938;2022-08-19T10:53:05;1999.90;;;999.90;;
12435;SDS011;6282;51.440;6.938;2022-08-19T10:55:34;1999.90;;;999.90;;
12435;SDS011;6282;51.440;6.938;2022-08-19T10:58:19;1999.90;;;999.90;;
12435;SDS011;6282;51.440;6.938;2022-08-19T11:00:50;1999.90;;;999.90;;
12435;SDS011;6282;51.440;6.938;2022-08-19T11:03:19;1999.90;;;999.90;;
12435;SDS011;6282;51.440;6.938;2022-08-19T11:05:46;1999.90;;;999.90;;
12435;SDS011;6282;51.440;6.938;2022-08-19T11:08:13;1999.90;;;999.90;;
12435;SDS011;6282;51.440;6.938;2022-08-19T11:10:43;1999.90;;;999.90;;
12435;SDS011;6282;51.440;6.938;2022-08-19T11:13:10;1999.90;;;999.90;;
12435;SDS011;6282;51.440;6.938;2022-08-19T11:15:36;1999.90;;;999.90;;
12435;SDS011;6282;51.440;6.938;2022-08-19T11:18:04;1999.90;;;999.90;;
12435;SDS011;6282;51.440;6.938;2022-08-19T11:20:32;1999.90;;;999.90;;
12435;SDS011;6282;51.440;6.938;2022-08-19T11:22:59;1999.90;;;999.90;;
12435;SDS011;6282;51.440;6.938;2022-08-19T11:25:26;1999.90;;;999.90;;
12435;SDS011;6282;51.440;6.938;2022-08-19T11:27:54;1999.90;;;999.90;;
12435;SDS011;6282;51.440;6.938;2022-08-19T11:30:21;1999.90;;;999.90;;
12435;SDS011;6282;51.440;6.938;2022-08-19T11:32:48;1999.90;;;999.90;;
12435;SDS011;6282;51.440;6.938;2022-08-19T11:35:15;1999.90;;;999.90;;
12435;SDS011;6282;51.440;6.938;2022-08-19T11:37:45;1999.90;;;999.90;;
12435;SDS011;6282;51.440;6.938;2022-08-19T11:40:12;1999.90;;;999.90;;
12435;SDS011;6282;51.440;6.938;2022-08-19T11:42:38;1999.90;;;999.90;;
12435;SDS011;6282;51.440;6.938;2022-08-19T11:45:26;1999.90;;;999.90;;
12435;SDS011;6282;51.440;6.938;2022-08-19T11:47:54;1999.90;;;999.90;;
12435;SDS011;6282;51.440;6.938;2022-08-19T11:50:22;1999.90;;;999.90;;
12435;SDS011;6282;51.440;6.938;2022-08-19T11:52:49;1999.90;;;999.90;;
12435;SDS011;6282;51.440;6.938;2022-08-19T11:55:19;1999.90;;;999.90;;
12435;SDS011;6282;51.440;6.938;2022-08-19T11:57:45;1999.90;;;999.90;;
12435;SDS011;6282;51.440;6.938;2022-08-19T12:00:13;1999.90;;;999.90;;
12435;SDS011;6282;51.440;6.938;2022-08-19T12:02:41;1999.90;;;999.90;;
12435;SDS011;6282;51.440;6.938;2022-08-19T12:05:08;1999.90;;;999.90;;
12435;SDS011;6282;51.440;6.938;2022-08-19T12:07:35;1999.90;;;999.90;;
12435;SDS011;6282;51.440;6.938;2022-08-19T12:10:02;1999.90;;;999.90;;
12435;SDS011;6282;51.440;6.938;2022-08-19T12:12:29;1999.90;;;999.90;;
12435;SDS011;6282;51.440;6.938;2022-08-19T12:14:56;1999.90;;;999.90;;
12435;SDS011;6282;51.440;6.938;2022-08-19T12:17:24;1999.90;;;999.90;;
12435;SDS011;6282;51.440;6.938;2022-08-19T12:19:53;1999.90;;;999.90;;
12435;SDS011;6282;51.440;6.938;2022-08-19T12:22:20;1999.90;;;999.90;;
12435;SDS011;6282;51.440;6.938;2022-08-19T12:24:47;1999.90;;;999.90;;
12435;SDS011;6282;51.440;6.938;2022-08-19T12:27:15;1999.90;;;999.90;;
12435;SDS011;6282;51.440;6.938;2022-08-19T12:29:43;1999.90;;;999.90;;
12435;SDS011;6282;51.440;6.938;2022-08-19T12:32:10;1999.90;;;999.90;;
12435;SDS011;6282;51.440;6.938;2022-08-19T12:34:37;1999.90;;;999.90;;
12435;SDS011;6282;51.440;6.938;2022-08-19T12:37:06;1999.90;;;999.90;;
12435;SDS011;6282;51.440;6.938;2022-08-19T12:39:34;1999.90;;;999.90;;
12435;SDS011;6282;51.440;6.938;2022-08-19T12:42:02;1999.90;;;999.90;;
12435;SDS011;6282;51.440;6.938;2022-08-19T12:44:29;1999.90;;;999.90;;
12435;SDS011;6282;51.440;6.938;2022-08-19T12:49:28;1999.90;;;999.90;;
12435;SDS011;6282;51.440;6.938;2022-08-19T12:51:56;1999.90;;;999.90;;
12435;SDS011;6282;51.440;6.938;2022-08-19T12:54:25;1999.90;;;999.90;;
12435;SDS011;6282;51.440;6.938;2022-08-19T12:56:52;1999.90;;;999.90;;
12435;SDS011;6282;51.440;6.938;2022-08-19T12:59:19;1999.90;;;999.90;;
12435;SDS011;6282;51.440;6.938;2022-08-19T13:01:46;1999.90;;;999.90;;
12435;SDS011;6282;51.440;6.938;2022-08-19T13:04:13;1999.90;;;999.90;;
12435;SDS011;6282;51.440;6.938;2022-08-19T13:06:41;1999.90;;;999.90;;
12435;SDS011;6282;51.440;6.938;2022-08-19T13:09:09;1999.90;;;999.90;;
12435;SDS011;6282;51.440;6.938;2022-08-19T13:11:39;1999.90;;;999.90;;
12435;SDS011;6282;51.440;6.938;2022-08-19T13:14:06;1999.90;;;999.90;;
12435;SDS011;6282;51.440;6.938;2022-08-19T13:16:33;1999.90;;;999.90;;
12435;SDS011;6282;51.440;6.938;2022-08-19T13:19:01;1999.90;;;999.90;;
12435;SDS011;6282;51.440;6.938;2022-08-19T13:21:30;1999.90;;;999.90;;
12435;SDS011;6282;51.440;6.938;2022-08-19T13:23:57;1999.90;;;999.90;;
12435;SDS011;6282;51.440;6.938;2022-08-19T13:26:24;1999.90;;;999.90;;
12435;SDS011;6282;51.440;6.938;2022-08-19T13:28:52;1999.90;;;999.90;;
12435;SDS011;6282;51.440;6.938;2022-08-19T13:31:39;1999.90;;;999.90;;
12435;SDS011;6282;51.440;6.938;2022-08-19T13:34:29;1999.90;;;999.90;;
12435;SDS011;6282;51.440;6.938;2022-08-19T13:36:59;1999.90;;;999.90;;
12435;SDS011;6282;51.440;6.938;2022-08-19T13:39:28;1999.90;;;999.90;;
12435;SDS011;6282;51.440;6.938;2022-08-19T13:41:58;1999.90;;;999.90;;
12435;SDS011;6282;51.440;6.938;2022-08-19T13:44:27;1999.90;;;999.90;;
12435;SDS011;6282;51.440;6.938;2022-08-19T13:46:55;1999.90;;;999.90;;
12435;SDS011;6282;51.440;6.938;2022-08-19T13:49:30;1999.90;;;999.90;;
12435;SDS011;6282;51.440;6.938;2022-08-19T13:51:57;1999.90;;;999.90;;
12435;SDS011;6282;51.440;6.938;2022-08-19T13:54:24;1999.90;;;999.90;;
12435;SDS011;6282;51.440;6.938;2022-08-19T13:56:52;1999.90;;;999.90;;
12435;SDS011;6282;51.440;6.938;2022-08-19T13:59:19;1999.90;;;999.90;;
12435;SDS011;6282;51.440;6.938;2022-08-19T14:01:47;1999.90;;;999.90;;
12435;SDS011;6282;51.440;6.938;2022-08-19T14:04:14;1999.90;;;999.90;;
12435;SDS011;6282;51.440;6.938;2022-08-19T14:06:41;1999.90;;;999.90;;
12435;SDS011;6282;51.440;6.938;2022-08-19T14:09:08;1999.90;;;999.90;;
12435;SDS011;6282;51.440;6.938;2022-08-19T14:11:35;1999.90;;;999.90;;
12435;SDS011;6282;51.440;6.938;2022-08-19T14:14:03;1999.90;;;999.90;;
12435;SDS011;6282;51.440;6.938;2022-08-19T14:16:30;1999.90;;;999.90;;
12435;SDS011;6282;51.440;6.938;2022-08-19T14:18:59;1999.90;;;999.90;;
12435;SDS011;6282;51.440;6.938;2022-08-19T14:21:26;1999.90;;;999.90;;